createdAt,value
2019-01-16T00:00:31.581Z,98.01
2019-01-16T00:01:31.573Z,98.01
2019-01-16T00:02:31.551Z,98.32
2019-01-16T00:03:31.539Z,97.60
2019-01-16T00:04:31.551Z,97.81
2019-01-16T00:05:31.517Z,98.01
2019-01-16T00:06:31.493Z,97.71
2019-01-16T00:07:31.492Z,98.53
2019-01-16T00:08:31.476Z,98.11
2019-01-16T00:09:31.501Z,97.91
2019-01-16T00:10:31.477Z,98.53
2019-01-16T00:11:31.447Z,98.43
2019-01-16T00:12:31.427Z,98.01
2019-01-16T00:13:31.435Z,98.53
2019-01-16T00:14:31.435Z,98.53
2019-01-16T00:15:31.428Z,98.43
2019-01-16T00:16:31.399Z,98.11
2019-01-16T00:17:31.397Z,97.91
2019-01-16T00:18:31.356Z,98.11
2019-01-16T00:19:31.382Z,97.50
2019-01-16T00:20:31.352Z,97.71
2019-01-16T00:21:32.374Z,97.29
2019-01-16T00:22:31.320Z,97.39
2019-01-16T00:23:31.323Z,97.04
2019-01-16T00:24:31.340Z,97.29
2019-01-16T00:25:31.314Z,96.62
2019-01-16T00:26:31.294Z,96.77
2019-01-16T00:27:31.291Z,96.36
2019-01-16T00:28:31.266Z,96.83
2019-01-16T00:29:31.266Z,96.83
2019-01-16T00:30:31.244Z,96.73
2019-01-16T00:31:31.281Z,96.21
2019-01-16T00:32:31.220Z,97.04
2019-01-16T00:33:31.251Z,96.62
2019-01-16T00:34:31.226Z,96.73
2019-01-16T00:35:38.335Z,96.94
2019-01-16T00:36:31.165Z,96.52
2019-01-16T00:37:31.173Z,96.62
2019-01-16T00:38:31.161Z,96.94
2019-01-16T00:39:31.141Z,96.73
2019-01-16T00:40:38.787Z,96.01
2019-01-16T00:41:31.129Z,96.42
2019-01-16T00:42:38.217Z,96.73
2019-01-16T00:43:39.048Z,96.42
2019-01-16T00:44:31.112Z,96.11
2019-01-16T00:45:31.112Z,96.01
2019-01-16T00:46:31.092Z,96.01
2019-01-16T00:47:31.069Z,95.34
2019-01-16T00:48:31.042Z,95.65
2019-01-16T00:49:31.085Z,95.55
2019-01-16T00:50:31.028Z,95.86
2019-01-16T00:51:31.017Z,95.14
2019-01-16T00:52:31.000Z,95.96
2019-01-16T00:53:31.003Z,95.59
2019-01-16T00:54:31.012Z,95.65
2019-01-16T00:55:30.989Z,95.55
2019-01-16T00:56:30.987Z,95.76
2019-01-16T00:57:30.957Z,95.45
2019-01-16T00:58:30.942Z,95.65
2019-01-16T00:59:30.968Z,95.34
2019-01-16T01:00:30.937Z,95.65
2019-01-16T01:01:30.918Z,95.34
2019-01-16T01:02:30.912Z,95.65
2019-01-16T01:03:30.885Z,95.55
2019-01-16T01:04:30.882Z,95.45
2019-01-16T01:05:30.857Z,95.24
2019-01-16T01:06:30.847Z,95.03
2019-01-16T01:07:30.836Z,95.34
2019-01-16T01:08:30.830Z,95.30
2019-01-16T01:09:30.829Z,95.86
2019-01-16T01:10:30.801Z,95.40
2019-01-16T01:11:30.785Z,95.30
2019-01-16T01:12:30.873Z,95.76
2019-01-16T01:13:30.787Z,95.71
2019-01-16T01:14:30.794Z,95.81
2019-01-16T01:15:30.761Z,95.81
2019-01-16T01:16:30.744Z,95.50
2019-01-16T01:17:30.740Z,96.06
2019-01-16T01:18:32.380Z,95.92
2019-01-16T01:19:30.702Z,96.12
2019-01-16T01:20:30.715Z,96.27
2019-01-16T01:21:30.702Z,96.37
2019-01-16T01:22:30.687Z,96.37
2019-01-16T01:23:30.671Z,96.27
2019-01-16T01:24:30.661Z,96.69
2019-01-16T01:25:30.661Z,96.53
2019-01-16T01:26:30.634Z,96.74
2019-01-16T01:27:30.650Z,97.09
2019-01-16T01:28:30.629Z,96.69
2019-01-16T01:29:30.617Z,96.23
2019-01-16T01:30:30.628Z,96.44
2019-01-16T01:31:30.584Z,96.27
2019-01-16T01:32:30.565Z,96.12
2019-01-16T01:33:30.566Z,96.27
2019-01-16T01:34:30.564Z,96.23
2019-01-16T01:35:30.570Z,96.37
2019-01-16T01:36:30.518Z,96.33
2019-01-16T01:37:30.542Z,96.12
2019-01-16T01:38:30.506Z,96.02
2019-01-16T01:39:30.504Z,96.23
2019-01-16T01:40:30.504Z,96.02
2019-01-16T01:41:30.470Z,96.02
2019-01-16T01:42:30.473Z,95.86
2019-01-16T01:43:30.439Z,95.61
2019-01-16T01:44:30.459Z,95.71
2019-01-16T01:45:30.446Z,95.40
2019-01-16T01:46:30.449Z,95.92
2019-01-16T01:47:30.455Z,95.81
2019-01-16T01:48:30.387Z,95.50
2019-01-16T01:49:30.386Z,95.30
2019-01-16T01:50:30.415Z,95.20
2019-01-16T01:51:30.382Z,94.89
2019-01-16T01:52:30.363Z,94.37
2019-01-16T01:53:30.359Z,95.81
2019-01-16T01:54:30.361Z,94.68
2019-01-16T01:55:30.352Z,95.61
2019-01-16T01:56:30.321Z,94.68
2019-01-16T01:57:30.321Z,94.89
2019-01-16T01:58:30.300Z,94.99
2019-01-16T01:59:30.287Z,94.99
2019-01-16T02:00:30.314Z,94.99
2019-01-16T02:01:30.340Z,94.99
2019-01-16T02:02:30.257Z,95.40
2019-01-16T02:03:30.282Z,94.57
2019-01-16T02:04:30.243Z,94.37
2019-01-16T02:05:30.267Z,94.43
2019-01-16T02:06:30.220Z,93.85
2019-01-16T02:07:30.189Z,94.57
2019-01-16T02:08:30.188Z,94.53
2019-01-16T02:09:30.184Z,94.06
2019-01-16T02:10:30.195Z,94.47
2019-01-16T02:11:30.155Z,94.43
2019-01-16T02:12:30.213Z,94.57
2019-01-16T02:13:30.130Z,94.99
2019-01-16T02:14:30.148Z,95.30
2019-01-16T02:15:30.141Z,94.99
2019-01-16T02:16:30.125Z,95.30
2019-01-16T02:17:30.085Z,95.09
2019-01-16T02:18:30.080Z,94.74
2019-01-16T02:19:30.063Z,94.99
2019-01-16T02:20:30.085Z,94.78
2019-01-16T02:21:30.038Z,95.61
2019-01-16T02:22:30.065Z,95.81
2019-01-16T02:23:30.019Z,94.78
2019-01-16T02:24:30.006Z,94.78
2019-01-16T02:25:30.036Z,94.68
2019-01-16T02:26:29.996Z,94.37
2019-01-16T02:27:30.005Z,94.43
2019-01-16T02:28:29.981Z,94.68
2019-01-16T02:29:29.947Z,95.36
2019-01-16T02:30:29.970Z,94.95
2019-01-16T02:31:29.934Z,95.09
2019-01-16T02:32:29.933Z,94.99
2019-01-16T02:33:29.946Z,94.68
2019-01-16T02:34:29.921Z,95.09
2019-01-16T02:35:29.926Z,94.99
2019-01-16T02:36:38.545Z,94.89
2019-01-16T02:37:37.923Z,95.09
2019-01-16T02:38:29.880Z,94.74
2019-01-16T02:39:29.870Z,94.89
2019-01-16T02:40:29.919Z,94.74
2019-01-16T02:41:29.819Z,94.43
2019-01-16T02:42:29.803Z,94.17
2019-01-16T02:43:29.795Z,94.12
2019-01-16T02:44:29.787Z,94.53
2019-01-16T02:45:29.803Z,94.64
2019-01-16T02:46:29.763Z,94.64
2019-01-16T02:47:29.749Z,94.53
2019-01-16T02:48:29.749Z,94.99
2019-01-16T02:49:29.748Z,95.09
2019-01-16T02:50:29.748Z,95.40
2019-01-16T02:51:29.735Z,94.37
2019-01-16T02:52:29.716Z,94.99
2019-01-16T02:53:29.709Z,94.99
2019-01-16T02:54:29.696Z,95.40
2019-01-16T02:55:29.694Z,95.30
2019-01-16T02:56:29.671Z,95.30
2019-01-16T02:57:29.673Z,95.61
2019-01-16T02:58:29.660Z,95.30
2019-01-16T02:59:29.624Z,94.99
2019-01-16T03:00:29.649Z,94.99
2019-01-16T03:01:29.628Z,95.15
2019-01-16T03:02:29.636Z,95.61
2019-01-16T03:03:29.625Z,95.50
2019-01-16T03:04:29.585Z,95.30
2019-01-16T03:05:29.593Z,95.30
2019-01-16T03:06:29.576Z,95.50
2019-01-16T03:07:29.598Z,95.92
2019-01-16T03:08:29.543Z,95.71
2019-01-16T03:09:29.531Z,95.20
2019-01-16T03:10:29.530Z,95.50
2019-01-16T03:11:29.497Z,95.40
2019-01-16T03:12:29.497Z,95.20
2019-01-16T03:13:29.517Z,95.61
2019-01-16T03:14:29.503Z,95.61
2019-01-16T03:15:29.475Z,95.40
2019-01-16T03:16:29.457Z,95.20
2019-01-16T03:17:29.439Z,95.09
2019-01-16T03:18:29.433Z,95.30
2019-01-16T03:19:29.422Z,95.81
2019-01-16T03:20:29.482Z,95.61
2019-01-16T03:21:29.407Z,95.61
2019-01-16T03:22:29.396Z,95.71
2019-01-16T03:23:29.371Z,95.81
2019-01-16T03:24:29.392Z,96.74
2019-01-16T03:25:29.359Z,96.12
2019-01-16T03:26:29.367Z,97.16
2019-01-16T03:27:29.331Z,97.05
2019-01-16T03:28:29.323Z,97.09
2019-01-16T03:29:29.313Z,97.20
2019-01-16T03:30:29.369Z,97.72
2019-01-16T03:31:29.319Z,98.33
2019-01-16T03:32:29.283Z,98.65
2019-01-16T03:33:29.274Z,98.85
2019-01-16T03:34:29.285Z,98.65
2019-01-16T03:35:29.298Z,98.54
2019-01-16T03:36:29.273Z,99.16
2019-01-16T03:37:29.249Z,99.47
2019-01-16T03:38:29.218Z,99.52
2019-01-16T03:39:29.208Z,99.57
2019-01-16T03:40:29.203Z,99.52
2019-01-16T03:41:29.198Z,99.41
2019-01-16T03:42:29.188Z,99.52
2019-01-16T03:43:29.170Z,99.62
2019-01-16T03:44:29.151Z,99.52
2019-01-16T03:45:29.144Z,99.93
2019-01-16T03:46:29.158Z,99.93
2019-01-16T03:47:29.125Z,99.99
2019-01-16T03:48:29.105Z,99.62
2019-01-16T03:49:29.117Z,99.72
2019-01-16T03:50:29.083Z,99.62
2019-01-16T03:51:29.582Z,99.99
2019-01-16T03:52:29.085Z,99.41
2019-01-16T03:53:29.085Z,99.82
2019-01-16T03:54:29.077Z,99.99
2019-01-16T03:55:29.036Z,99.62
2019-01-16T03:56:29.083Z,99.21
2019-01-16T03:57:29.015Z,98.90
2019-01-16T03:58:29.016Z,98.90
2019-01-16T03:59:29.021Z,99.00
2019-01-16T04:00:29.568Z,98.69
2019-01-16T04:01:28.989Z,99.21
2019-01-16T04:02:28.956Z,98.58
2019-01-16T04:03:28.989Z,99.00
2019-01-16T04:04:28.953Z,98.79
2019-01-16T04:05:28.944Z,99.21
2019-01-16T04:06:28.967Z,98.58
2019-01-16T04:07:29.577Z,99.21
2019-01-16T04:08:29.549Z,99.10
2019-01-16T04:09:28.922Z,98.58
2019-01-16T04:10:28.884Z,99.00
2019-01-16T04:11:29.095Z,98.79
2019-01-16T04:12:28.841Z,98.90
2019-01-16T04:13:28.830Z,98.38
2019-01-16T04:14:28.827Z,99.31
2019-01-16T04:15:28.825Z,98.58
2019-01-16T04:16:28.826Z,98.18
2019-01-16T04:17:28.793Z,98.07
2019-01-16T04:18:28.790Z,98.38
2019-01-16T04:19:28.762Z,98.49
2019-01-16T04:20:28.766Z,98.07
2019-01-16T04:21:28.772Z,98.38
2019-01-16T04:22:28.756Z,97.97
2019-01-16T04:23:28.739Z,98.07
2019-01-16T04:24:28.714Z,97.97
2019-01-16T04:25:28.713Z,97.76
2019-01-16T04:26:35.859Z,97.14
2019-01-16T04:27:28.697Z,97.25
2019-01-16T04:28:28.695Z,97.45
2019-01-16T04:29:28.660Z,97.34
2019-01-16T04:30:28.662Z,97.34
2019-01-16T04:31:28.658Z,97.25
2019-01-16T04:32:28.725Z,96.62
2019-01-16T04:33:28.623Z,96.42
2019-01-16T04:34:28.621Z,96.52
2019-01-16T04:35:28.612Z,96.62
2019-01-16T04:36:28.618Z,96.62
2019-01-16T04:37:28.581Z,95.90
2019-01-16T04:38:28.578Z,95.90
2019-01-16T04:39:28.567Z,96.21
2019-01-16T04:40:28.556Z,96.11
2019-01-16T04:41:28.562Z,96.31
2019-01-16T04:42:28.523Z,96.83
2019-01-16T04:43:28.520Z,96.94
2019-01-16T04:44:28.521Z,97.14
2019-01-16T04:45:28.506Z,95.80
2019-01-16T04:46:28.529Z,96.11
2019-01-16T04:47:28.473Z,95.90
2019-01-16T04:48:28.451Z,95.80
2019-01-16T04:49:30.544Z,95.07
2019-01-16T04:50:28.450Z,95.28
2019-01-16T04:51:28.456Z,95.18
2019-01-16T04:52:28.437Z,95.49
2019-01-16T04:53:36.485Z,95.39
2019-01-16T04:54:28.421Z,95.07
2019-01-16T04:55:36.066Z,95.07
2019-01-16T04:56:28.404Z,95.70
2019-01-16T04:57:28.371Z,95.14
2019-01-16T04:58:28.373Z,94.93
2019-01-16T04:59:28.336Z,95.07
2019-01-16T05:00:28.336Z,95.28
2019-01-16T05:01:28.328Z,94.77
2019-01-16T05:02:28.310Z,94.87
2019-01-16T05:03:28.310Z,95.49
2019-01-16T05:04:28.291Z,93.84
2019-01-16T05:05:28.307Z,94.56
2019-01-16T05:06:28.291Z,94.15
2019-01-16T05:07:28.285Z,94.97
2019-01-16T05:08:28.247Z,95.39
2019-01-16T05:09:28.257Z,94.56
2019-01-16T05:10:28.225Z,94.25
2019-01-16T05:11:28.223Z,93.94
2019-01-16T05:12:29.431Z,94.15
2019-01-16T05:13:28.213Z,94.35
2019-01-16T05:14:29.111Z,94.56
2019-01-16T05:15:28.207Z,94.56
2019-01-16T05:16:28.192Z,93.94
2019-01-16T05:17:28.155Z,94.15
2019-01-16T05:18:28.159Z,94.15
2019-01-16T05:19:28.192Z,93.49
2019-01-16T05:20:28.135Z,93.94
2019-01-16T05:21:28.142Z,93.94
2019-01-16T05:22:28.132Z,94.15
2019-01-16T05:23:28.115Z,92.70
2019-01-16T05:24:28.079Z,93.18
2019-01-16T05:25:28.092Z,93.18
2019-01-16T05:26:28.144Z,93.18
2019-01-16T05:27:28.076Z,93.22
2019-01-16T05:28:28.047Z,93.12
2019-01-16T05:29:28.023Z,92.66
2019-01-16T05:30:28.018Z,92.40
2019-01-16T05:31:28.000Z,92.76
2019-01-16T05:32:28.001Z,92.70
2019-01-16T05:33:27.984Z,92.60
2019-01-16T05:34:27.987Z,92.60
2019-01-16T05:35:27.976Z,92.14
2019-01-16T05:36:27.957Z,91.52
2019-01-16T05:37:28.206Z,91.63
2019-01-16T05:38:27.942Z,92.04
2019-01-16T05:39:27.922Z,91.56
2019-01-16T05:40:27.899Z,91.77
2019-01-16T05:41:27.913Z,91.52
2019-01-16T05:42:27.904Z,91.36
2019-01-16T05:43:27.874Z,91.11
2019-01-16T05:44:27.898Z,91.63
2019-01-16T05:45:27.854Z,91.77
2019-01-16T05:46:27.845Z,91.36
2019-01-16T05:47:27.856Z,90.91
2019-01-16T05:48:27.839Z,91.05
2019-01-16T05:49:27.827Z,90.84
2019-01-16T05:50:27.810Z,91.26
2019-01-16T05:51:27.821Z,91.16
2019-01-16T05:52:27.819Z,90.43
2019-01-16T05:53:27.755Z,90.95
2019-01-16T05:54:27.760Z,91.16
2019-01-16T05:55:27.751Z,90.95
2019-01-16T05:56:35.702Z,91.26
2019-01-16T05:57:28.188Z,90.49
2019-01-16T05:58:27.699Z,89.50
2019-01-16T05:59:27.696Z,90.64
2019-01-16T06:00:27.694Z,89.40
2019-01-16T06:01:27.690Z,90.12
2019-01-16T06:02:27.678Z,89.50
2019-01-16T06:03:27.665Z,89.19
2019-01-16T06:04:27.650Z,89.29
2019-01-16T06:05:27.640Z,88.78
2019-01-16T06:06:27.623Z,88.47
2019-01-16T06:07:27.632Z,88.89
2019-01-16T06:08:27.618Z,88.37
2019-01-16T06:09:27.614Z,87.85
2019-01-16T06:10:27.595Z,88.47
2019-01-16T06:11:28.162Z,89.09
2019-01-16T06:12:27.584Z,88.57
2019-01-16T06:13:27.571Z,88.78
2019-01-16T06:14:27.550Z,88.47
2019-01-16T06:15:27.526Z,88.89
2019-01-16T06:16:27.524Z,88.78
2019-01-16T06:17:27.552Z,88.57
2019-01-16T06:18:27.503Z,88.89
2019-01-16T06:19:27.477Z,88.47
2019-01-16T06:20:27.480Z,88.78
2019-01-16T06:21:27.475Z,88.47
2019-01-16T06:22:27.474Z,88.16
2019-01-16T06:23:27.470Z,88.98
2019-01-16T06:24:27.438Z,88.37
2019-01-16T06:25:27.476Z,87.85
2019-01-16T06:26:27.407Z,88.06
2019-01-16T06:27:27.411Z,88.51
2019-01-16T06:28:27.383Z,88.16
2019-01-16T06:29:27.368Z,88.16
2019-01-16T06:30:27.361Z,88.16
2019-01-16T06:31:27.356Z,88.47
2019-01-16T06:32:27.351Z,88.89
2019-01-16T06:33:27.344Z,88.57
2019-01-16T06:34:27.333Z,88.37
2019-01-16T06:35:27.318Z,87.65
2019-01-16T06:36:27.319Z,88.16
2019-01-16T06:37:27.341Z,88.37
2019-01-16T06:38:27.287Z,88.26
2019-01-16T06:39:27.285Z,88.51
2019-01-16T06:40:27.298Z,88.57
2019-01-16T06:41:27.275Z,88.89
2019-01-16T06:42:27.303Z,88.61
2019-01-16T06:43:27.233Z,88.89
2019-01-16T06:44:27.242Z,88.61
2019-01-16T06:45:27.236Z,89.03
2019-01-16T06:46:27.217Z,89.03
2019-01-16T06:47:27.220Z,88.98
2019-01-16T06:48:27.184Z,89.13
2019-01-16T06:49:27.177Z,89.44
2019-01-16T06:50:27.174Z,89.34
2019-01-16T06:51:27.145Z,89.23
2019-01-16T06:52:27.165Z,89.75
2019-01-16T06:53:27.128Z,89.75
2019-01-16T06:54:27.126Z,89.75
2019-01-16T06:55:27.094Z,90.16
2019-01-16T06:56:27.101Z,89.44
2019-01-16T06:57:27.113Z,89.54
2019-01-16T06:58:27.074Z,89.65
2019-01-16T06:59:27.078Z,89.65
2019-01-16T07:00:27.059Z,89.54
2019-01-16T07:01:27.027Z,90.06
2019-01-16T07:02:27.043Z,89.86
2019-01-16T07:03:27.029Z,89.34
2019-01-16T07:04:27.013Z,89.75
2019-01-16T07:05:27.026Z,89.95
2019-01-16T07:06:26.983Z,89.65
2019-01-16T07:07:26.995Z,89.75
2019-01-16T07:08:26.975Z,89.54
2019-01-16T07:09:26.962Z,89.75
2019-01-16T07:10:26.925Z,89.75
2019-01-16T07:11:26.954Z,89.54
2019-01-16T07:12:26.943Z,89.23
2019-01-16T07:13:26.911Z,89.23
2019-01-16T07:14:26.918Z,89.65
2019-01-16T07:15:26.885Z,89.86
2019-01-16T07:16:26.869Z,89.86
2019-01-16T07:17:26.893Z,89.65
2019-01-16T07:18:26.864Z,89.54
2019-01-16T07:19:26.837Z,90.06
2019-01-16T07:20:26.858Z,89.44
2019-01-16T07:21:35.418Z,89.23
2019-01-16T07:22:27.266Z,89.75
2019-01-16T07:23:26.804Z,89.86
2019-01-16T07:24:26.808Z,89.75
2019-01-16T07:25:35.357Z,89.86
2019-01-16T07:26:26.794Z,89.65
2019-01-16T07:27:26.786Z,89.95
2019-01-16T07:28:33.870Z,89.86
2019-01-16T07:29:26.773Z,90.58
2019-01-16T07:30:26.812Z,90.47
2019-01-16T07:31:26.755Z,90.37
2019-01-16T07:32:26.773Z,90.16
2019-01-16T07:33:26.696Z,90.68
2019-01-16T07:34:26.698Z,90.78
2019-01-16T07:35:26.724Z,90.78
2019-01-16T07:36:26.685Z,90.58
2019-01-16T07:37:26.654Z,90.78
2019-01-16T07:38:26.673Z,91.09
2019-01-16T07:39:26.638Z,90.52
2019-01-16T07:40:26.631Z,90.47
2019-01-16T07:41:26.598Z,90.72
2019-01-16T07:42:26.584Z,91.30
2019-01-16T07:43:26.605Z,91.30
2019-01-16T07:44:26.578Z,91.30
2019-01-16T07:45:26.581Z,91.13
2019-01-16T07:46:26.574Z,90.83
2019-01-16T07:47:26.538Z,91.40
2019-01-16T07:48:33.647Z,92.27
2019-01-16T07:49:34.625Z,92.27
2019-01-16T07:50:26.526Z,92.44
2019-01-16T07:51:26.509Z,92.27
2019-01-16T07:52:26.482Z,92.79
2019-01-16T07:53:26.494Z,92.44
2019-01-16T07:54:26.463Z,92.48
2019-01-16T07:55:26.457Z,91.40
2019-01-16T07:56:26.454Z,92.13
2019-01-16T07:57:26.429Z,92.02
2019-01-16T07:58:26.446Z,92.64
2019-01-16T07:59:26.413Z,91.86
2019-01-16T08:00:26.404Z,92.38
2019-01-16T08:01:26.385Z,91.34
2019-01-16T08:02:26.382Z,91.65
2019-01-16T08:03:26.390Z,91.34
2019-01-16T08:04:26.348Z,91.34
2019-01-16T08:05:26.352Z,91.86
2019-01-16T08:06:26.420Z,92.27
2019-01-16T08:07:26.339Z,92.23
2019-01-16T08:08:26.346Z,92.17
2019-01-16T08:09:26.368Z,92.68
2019-01-16T08:10:26.351Z,92.58
2019-01-16T08:11:26.283Z,92.48
2019-01-16T08:12:33.451Z,91.96
2019-01-16T08:13:26.290Z,92.48
2019-01-16T08:14:26.272Z,92.48
2019-01-16T08:15:26.286Z,92.58
2019-01-16T08:16:26.238Z,92.17
2019-01-16T08:17:26.200Z,92.27
2019-01-16T08:18:34.456Z,92.27
2019-01-16T08:19:26.232Z,92.48
2019-01-16T08:20:33.312Z,92.27
2019-01-16T08:21:34.859Z,92.58
2019-01-16T08:23:45.183Z,92.27
2019-01-16T08:24:52.726Z,92.42
2019-01-16T08:25:44.743Z,92.48
2019-01-16T08:26:45.497Z,92.38
2019-01-16T08:27:44.708Z,92.38
2019-01-16T08:28:44.716Z,92.17
2019-01-16T08:29:44.676Z,91.75
2019-01-16T08:30:44.674Z,91.34
2019-01-16T08:31:44.655Z,91.44
2019-01-16T08:32:44.659Z,90.93
2019-01-16T08:33:44.651Z,91.24
2019-01-16T08:34:44.623Z,91.03
2019-01-16T08:35:44.632Z,90.52
2019-01-16T08:36:44.648Z,91.09
2019-01-16T08:37:44.588Z,91.13
2019-01-16T08:38:44.607Z,90.47
2019-01-16T08:39:44.581Z,90.41
2019-01-16T08:40:44.552Z,90.37
2019-01-16T08:41:44.556Z,90.47
2019-01-16T08:42:44.560Z,90.37
2019-01-16T08:43:52.706Z,90.37
2019-01-16T08:44:53.366Z,90.68
2019-01-16T08:45:44.536Z,90.47
2019-01-16T08:46:44.544Z,89.75
2019-01-16T08:47:44.481Z,89.95
2019-01-16T08:48:44.531Z,89.34
2019-01-16T08:49:44.454Z,89.34
2019-01-16T08:50:44.474Z,89.86
2019-01-16T08:51:44.455Z,89.95
2019-01-16T08:52:44.423Z,89.86
2019-01-16T08:53:44.711Z,89.75
2019-01-16T08:54:44.409Z,89.75
2019-01-16T08:55:44.407Z,89.86
2019-01-16T08:56:44.430Z,89.95
2019-01-16T08:57:44.427Z,89.86
2019-01-16T08:58:44.398Z,89.65
2019-01-16T08:59:44.373Z,89.65
2019-01-16T09:00:44.388Z,89.34
2019-01-16T09:01:44.371Z,89.34
2019-01-16T09:02:44.345Z,89.23
2019-01-16T09:03:44.343Z,89.44
2019-01-16T09:04:44.311Z,89.95
2019-01-16T09:05:44.303Z,89.44
2019-01-16T09:06:44.300Z,89.54
2019-01-16T09:07:44.307Z,89.75
2019-01-16T09:08:44.312Z,88.82
2019-01-16T09:09:44.268Z,89.13
2019-01-16T09:10:44.263Z,89.61
2019-01-16T09:11:44.251Z,89.19
2019-01-16T09:12:44.232Z,89.19
2019-01-16T09:13:44.229Z,89.09
2019-01-16T09:14:44.219Z,89.34
2019-01-16T09:15:44.193Z,89.81
2019-01-16T09:16:44.198Z,89.54
2019-01-16T09:17:44.165Z,89.50
2019-01-16T09:18:44.199Z,89.75
2019-01-16T09:19:44.135Z,89.75
2019-01-16T09:20:44.131Z,90.37
2019-01-16T09:21:44.135Z,90.74
2019-01-16T09:22:45.051Z,90.78
2019-01-16T09:23:44.134Z,90.78
2019-01-16T09:24:44.118Z,90.37
2019-01-16T09:25:44.097Z,90.78
2019-01-16T09:26:44.075Z,90.99
2019-01-16T09:27:44.079Z,90.37
2019-01-16T09:28:44.086Z,90.37
2019-01-16T09:29:44.049Z,90.58
2019-01-16T09:30:44.029Z,90.53
2019-01-16T09:31:44.031Z,91.05
2019-01-16T09:32:44.033Z,90.47
2019-01-16T09:33:44.037Z,90.95
2019-01-16T09:34:43.991Z,90.84
2019-01-16T09:35:44.033Z,90.68
2019-01-16T09:36:43.987Z,90.89
2019-01-16T09:37:43.967Z,90.99
2019-01-16T09:38:43.979Z,90.53
2019-01-16T09:39:43.933Z,91.26
2019-01-16T09:40:43.938Z,91.26
2019-01-16T09:41:43.943Z,91.20
2019-01-16T09:42:43.922Z,90.74
2019-01-16T09:43:44.823Z,90.95
2019-01-16T09:44:43.873Z,90.22
2019-01-16T09:45:43.866Z,90.78
2019-01-16T09:46:43.867Z,90.99
2019-01-16T09:47:43.881Z,90.95
2019-01-16T09:48:43.901Z,90.89
2019-01-16T09:49:43.844Z,90.95
2019-01-16T09:50:47.836Z,91.09
2019-01-16T09:51:43.819Z,91.16
2019-01-16T09:52:43.825Z,90.74
2019-01-16T09:53:43.813Z,91.16
2019-01-16T09:54:43.801Z,90.74
2019-01-16T09:55:43.765Z,91.26
2019-01-16T09:56:43.773Z,91.16
2019-01-16T09:57:43.743Z,90.74
2019-01-16T09:58:43.746Z,91.36
2019-01-16T09:59:43.747Z,90.33
2019-01-16T10:00:43.718Z,90.64
2019-01-16T10:01:43.719Z,90.53
2019-01-16T10:02:43.704Z,90.53
2019-01-16T10:03:43.728Z,90.12
2019-01-16T10:04:51.271Z,89.71
2019-01-16T10:05:51.816Z,89.56
2019-01-16T10:06:51.838Z,89.29
2019-01-16T10:07:43.666Z,89.71
2019-01-16T10:08:43.714Z,89.29
2019-01-16T10:09:43.644Z,89.61
2019-01-16T10:10:43.657Z,89.25
2019-01-16T10:11:43.623Z,89.29
2019-01-16T10:12:43.591Z,89.25
2019-01-16T10:13:43.613Z,88.47
2019-01-16T10:14:43.557Z,88.64
2019-01-16T10:15:43.573Z,88.53
2019-01-16T10:16:44.277Z,88.53
2019-01-16T10:17:43.559Z,88.95
2019-01-16T10:18:43.579Z,88.64
2019-01-16T10:19:43.509Z,88.47
2019-01-16T10:20:46.316Z,88.22
2019-01-16T10:21:43.508Z,88.32
2019-01-16T10:22:43.493Z,88.43
2019-01-16T10:23:43.510Z,87.19
2019-01-16T10:24:43.493Z,87.81
2019-01-16T10:25:43.469Z,87.77
2019-01-16T10:26:43.469Z,87.46
2019-01-16T10:27:43.491Z,87.81
2019-01-16T10:28:43.440Z,87.81
2019-01-16T10:29:43.450Z,87.81
2019-01-16T10:30:43.409Z,87.50
2019-01-16T10:31:43.394Z,87.50
2019-01-16T10:32:43.390Z,88.02
2019-01-16T10:33:43.401Z,87.60
2019-01-16T10:34:43.402Z,88.02
2019-01-16T10:35:43.372Z,88.12
2019-01-16T10:36:43.338Z,87.50
2019-01-16T10:37:43.339Z,88.22
2019-01-16T10:38:43.329Z,86.78
2019-01-16T10:39:43.312Z,86.57
2019-01-16T10:40:51.342Z,87.08
2019-01-16T10:41:50.447Z,86.68
2019-01-16T10:42:51.379Z,87.29
2019-01-16T10:43:43.315Z,86.98
2019-01-16T10:44:43.324Z,87.29
2019-01-16T10:45:43.297Z,87.29
2019-01-16T10:46:43.216Z,86.78
2019-01-16T10:47:50.817Z,86.68
2019-01-16T10:48:49.648Z,87.08
2019-01-16T10:49:44.289Z,86.78
2019-01-16T10:50:43.173Z,86.98
2019-01-16T10:51:43.183Z,86.98
2019-01-16T10:52:43.167Z,86.78
2019-01-16T10:53:43.188Z,86.78
2019-01-16T10:54:43.215Z,86.88
2019-01-16T10:55:43.132Z,86.05
2019-01-16T10:56:43.913Z,86.05
2019-01-16T10:57:43.149Z,86.05
2019-01-16T10:58:43.145Z,86.47
2019-01-16T10:59:43.120Z,86.36
2019-01-16T11:00:43.107Z,86.05
2019-01-16T11:01:43.062Z,85.85
2019-01-16T11:02:43.891Z,86.16
2019-01-16T11:03:43.079Z,86.26
2019-01-16T11:04:43.066Z,86.26
2019-01-16T11:05:43.040Z,86.57
2019-01-16T11:06:43.029Z,85.54
2019-01-16T11:07:43.029Z,85.95
2019-01-16T11:08:42.999Z,85.64
2019-01-16T11:09:43.022Z,85.95
2019-01-16T11:10:42.986Z,85.85
2019-01-16T11:11:42.981Z,85.85
2019-01-16T11:12:42.957Z,85.33
2019-01-16T11:13:42.949Z,85.64
2019-01-16T11:14:42.959Z,85.85
2019-01-16T11:15:42.941Z,85.95
2019-01-16T11:16:42.936Z,85.23
2019-01-16T11:17:42.902Z,85.64
2019-01-16T11:18:42.919Z,85.44
2019-01-16T11:19:42.959Z,85.23
2019-01-16T11:20:42.874Z,85.33
2019-01-16T11:21:42.874Z,85.30
2019-01-16T11:22:42.873Z,85.13
2019-01-16T11:23:42.826Z,85.33
2019-01-16T11:24:42.855Z,85.13
2019-01-16T11:25:42.840Z,85.50
2019-01-16T11:26:42.829Z,85.44
2019-01-16T11:27:42.802Z,85.30
2019-01-16T11:28:42.815Z,85.19
2019-01-16T11:29:42.811Z,85.54
2019-01-16T11:30:42.799Z,85.09
2019-01-16T11:31:42.754Z,85.19
2019-01-16T11:32:42.790Z,84.88
2019-01-16T11:33:42.768Z,84.88
2019-01-16T11:34:42.784Z,84.78
2019-01-16T11:35:44.491Z,85.30
2019-01-16T11:36:42.723Z,85.60
2019-01-16T11:37:43.409Z,85.50
2019-01-16T11:38:42.746Z,84.88
2019-01-16T11:39:42.925Z,84.78
2019-01-16T11:40:42.696Z,85.09
2019-01-16T11:41:42.686Z,84.88
2019-01-16T11:42:42.721Z,84.57
2019-01-16T11:43:42.647Z,84.84
2019-01-16T11:44:42.640Z,84.78
2019-01-16T11:45:42.637Z,84.06
2019-01-16T11:46:42.590Z,84.36
2019-01-16T11:47:42.595Z,83.71
2019-01-16T11:48:42.566Z,84.01
2019-01-16T11:49:42.599Z,83.09
2019-01-16T11:50:42.556Z,84.22
2019-01-16T11:51:42.556Z,83.61
2019-01-16T11:52:42.516Z,83.61
2019-01-16T11:53:42.513Z,82.57
2019-01-16T11:54:42.517Z,82.57
2019-01-16T11:55:42.494Z,83.09
2019-01-16T11:56:42.496Z,82.98
2019-01-16T11:57:42.475Z,83.09
2019-01-16T11:58:42.487Z,83.19
2019-01-16T11:59:42.447Z,82.74
2019-01-16T12:00:42.431Z,82.78
2019-01-16T12:01:42.444Z,82.26
2019-01-16T12:02:42.407Z,82.37
2019-01-16T12:03:42.402Z,82.57
2019-01-16T12:04:42.446Z,82.78
2019-01-16T12:05:42.387Z,82.57
2019-01-16T12:06:42.370Z,82.57
2019-01-16T12:07:51.495Z,82.47
2019-01-16T12:08:50.482Z,82.26
2019-01-16T12:09:50.560Z,81.54
2019-01-16T12:10:49.446Z,82.74
2019-01-16T12:11:49.410Z,82.78
2019-01-16T12:12:50.726Z,81.96
2019-01-16T12:13:50.467Z,82.26
2019-01-16T12:14:50.925Z,82.26
2019-01-16T12:15:50.628Z,82.47
2019-01-16T12:16:50.750Z,82.68
2019-01-16T12:17:49.698Z,82.57
2019-01-16T12:18:42.438Z,82.37
2019-01-16T12:19:42.334Z,82.57
2019-01-16T12:20:42.368Z,82.57
2019-01-16T12:21:43.636Z,82.57
2019-01-16T12:22:42.226Z,82.68
2019-01-16T12:23:43.139Z,82.68
2019-01-16T12:24:42.225Z,83.29
2019-01-16T12:25:42.215Z,82.68
2019-01-16T12:26:42.217Z,83.29
2019-01-16T12:27:42.173Z,83.09
2019-01-16T12:28:42.141Z,82.57
2019-01-16T12:29:42.239Z,83.09
2019-01-16T12:30:43.151Z,83.50
2019-01-16T12:31:42.132Z,83.40
2019-01-16T12:32:51.366Z,82.51
2019-01-16T12:33:42.149Z,82.68
2019-01-16T12:34:42.158Z,83.09
2019-01-16T12:35:50.333Z,83.09
2019-01-16T12:36:50.878Z,83.95
2019-01-16T12:37:49.773Z,83.61
2019-01-16T12:38:42.071Z,83.09
2019-01-16T12:39:42.088Z,83.19
2019-01-16T12:40:42.047Z,83.61
2019-01-16T12:41:42.013Z,82.68
2019-01-16T12:42:41.989Z,83.03
2019-01-16T12:43:42.006Z,83.13
2019-01-16T12:44:41.999Z,82.61
2019-01-16T12:45:42.019Z,83.23
2019-01-16T12:46:42.010Z,82.78
2019-01-16T12:47:42.006Z,83.64
2019-01-16T12:48:41.955Z,82.82
2019-01-16T12:49:41.970Z,82.82
2019-01-16T12:50:41.928Z,82.57
2019-01-16T12:51:41.926Z,82.06
2019-01-16T12:52:41.919Z,82.40
2019-01-16T12:53:42.730Z,82.26